Time;durP1;ratioP1;P1;durP2;ratioP2;P2;SDS_P1;SDS_P2;PMS_P1;PMS_P2;Temp;Humidity;BMP_temperature;BMP_pressure;BME280_temperature;BME280_humidity;BME280_pressure;Samples;Min_cycle;Max_cycle;Signal;HPM_P1;HPM_P2
2023/06/23 00:00:09;;;;;;;7.57;4.80;;;;;;;;;;7368233;19;20002;-59
2023/06/23 00:02:35;;;;;;;7.55;4.60;;;;;;;;;;7370078;19;20058;-59
2023/06/23 00:05:00;;;;;;;9.18;4.18;;;;;;;;;;7370018;19;20038;-60
2023/06/23 00:07:26;;;;;;;10.68;5.40;;;;;;;;;;7366683;19;20011;-60
2023/06/23 00:09:51;;;;;;;7.22;4.53;;;;;;;;;;7364425;19;20003;-61
2023/06/23 00:12:16;;;;;;;7.78;4.43;;;;;;;;;;7388933;19;20006;-61
2023/06/23 00:14:42;;;;;;;7.00;4.40;;;;;;;;;;7364834;19;20010;-61
2023/06/23 00:17:07;;;;;;;7.50;4.50;;;;;;;;;;7363654;19;20026;-62
2023/06/23 00:19:33;;;;;;;8.77;5.13;;;;;;;;;;7365193;19;20070;-61
2023/06/23 00:21:58;;;;;;;8.25;4.80;;;;;;;;;;7364369;19;20013;-61
2023/06/23 00:24:23;;;;;;;9.48;4.40;;;;;;;;;;7387446;19;20073;-62
2023/06/23 00:26:50;;;;;;;6.82;4.63;;;;;;;;;;7367271;19;20010;-60
2023/06/23 00:29:15;;;;;;;8.68;5.05;;;;;;;;;;7368594;19;20017;-60
2023/06/23 00:31:41;;;;;;;8.35;4.55;;;;;;;;;;7366165;19;20078;-60
2023/06/23 00:34:06;;;;;;;8.25;4.80;;;;;;;;;;7365343;19;20066;-61
2023/06/23 00:36:31;;;;;;;9.55;5.10;;;;;;;;;;7386389;19;20023;-61
2023/06/23 00:38:57;;;;;;;8.18;5.00;;;;;;;;;;7367447;19;20018;-61
2023/06/23 00:41:22;;;;;;;8.35;5.35;;;;;;;;;;7372593;19;20025;-61
2023/06/23 00:43:51;;;;;;;7.85;5.20;;;;;;;;;;7372975;19;20014;-61
2023/06/23 00:46:19;;;;;;;7.20;4.47;;;;;;;;;;7372538;19;20015;-61
2023/06/23 00:48:45;;;;;;;8.55;5.07;;;;;;;;;;7392205;19;20003;-61
2023/06/23 00:51:10;;;;;;;8.93;4.65;;;;;;;;;;7372922;19;20491;-61
2023/06/23 00:53:36;;;;;;;7.20;4.45;;;;;;;;;;7372073;19;20645;-61
2023/06/23 00:56:02;;;;;;;7.53;4.55;;;;;;;;;;7372422;19;20067;-61
2023/06/23 00:58:28;;;;;;;7.07;4.85;;;;;;;;;;7371056;19;20027;-61
2023/06/23 01:00:55;;;;;;;8.13;4.65;;;;;;;;;;7371375;19;20367;-62
2023/06/23 01:03:20;;;;;;;7.15;4.10;;;;;;;;;;7392615;19;20002;-61
2023/06/23 01:05:48;;;;;;;7.30;4.55;;;;;;;;;;7371385;19;20031;-61
2023/06/23 01:08:30;;;;;;;6.57;4.60;;;;;;;;;;7371172;19;20064;-61
2023/06/23 01:11:39;;;;;;;7.80;4.53;;;;;;;;;;7373719;19;20101;-60
2023/06/23 01:14:11;;;;;;;6.57;4.28;;;;;;;;;;7376632;19;20014;-60
2023/06/23 01:16:47;;;;;;;7.32;4.90;;;;;;;;;;7375573;19;20014;-61
2023/06/23 01:19:21;;;;;;;10.65;5.32;;;;;;;;;;7376542;19;20006;-61
2023/06/23 01:22:04;;;;;;;7.82;4.45;;;;;;;;;;7398418;19;20006;-61
2023/06/23 01:24:40;;;;;;;8.60;5.00;;;;;;;;;;7374073;19;20019;-61
2023/06/23 01:27:23;;;;;;;12.48;5.00;;;;;;;;;;7372834;19;20002;-61
2023/06/23 01:29:52;;;;;;;8.88;5.00;;;;;;;;;;7370698;19;20081;-61
2023/06/23 01:32:27;;;;;;;8.68;4.85;;;;;;;;;;7371812;19;20442;-61
2023/06/23 01:34:57;;;;;;;8.48;5.15;;;;;;;;;;7371442;19;20022;-59
2023/06/23 01:37:27;;;;;;;8.00;4.90;;;;;;;;;;7370573;19;20022;-61
2023/06/23 01:40:12;;;;;;;8.65;5.05;;;;;;;;;;7371714;19;20094;-61
2023/06/23 01:42:42;;;;;;;9.55;5.28;;;;;;;;;;7393111;19;20021;-61
2023/06/23 01:45:11;;;;;;;9.60;5.80;;;;;;;;;;7371907;19;20021;-59
2023/06/23 01:47:40;;;;;;;7.88;5.00;;;;;;;;;;7370543;19;20497;-61
2023/06/23 01:50:08;;;;;;;9.10;5.00;;;;;;;;;;7368579;19;20016;-60
2023/06/23 01:52:37;;;;;;;8.10;5.38;;;;;;;;;;7370298;19;20048;-61
2023/06/23 01:55:05;;;;;;;9.32;5.15;;;;;;;;;;7372088;19;20002;-61
2023/06/23 01:57:31;;;;;;;8.20;4.60;;;;;;;;;;7391428;19;20015;-61
2023/06/23 01:59:58;;;;;;;12.25;5.15;;;;;;;;;;7368899;19;20023;-60
2023/06/23 02:02:25;;;;;;;7.32;5.00;;;;;;;;;;7369106;19;20014;-61
2023/06/23 02:04:54;;;;;;;8.00;5.28;;;;;;;;;;7369571;19;20843;-62
2023/06/23 02:07:20;;;;;;;7.97;5.13;;;;;;;;;;7370402;19;20011;-61
2023/06/23 02:09:46;;;;;;;10.18;4.88;;;;;;;;;;7392217;19;20104;-60
2023/06/23 02:12:13;;;;;;;9.52;5.03;;;;;;;;;;7369711;19;20074;-60
2023/06/23 02:14:40;;;;;;;8.95;5.10;;;;;;;;;;7366677;19;20483;-60
2023/06/23 02:17:09;;;;;;;7.07;4.15;;;;;;;;;;7366969;19;20022;-61
2023/06/23 02:19:38;;;;;;;7.05;4.43;;;;;;;;;;7369544;19;20015;-59
2023/06/23 02:22:07;;;;;;;6.57;4.65;;;;;;;;;;7366954;19;20024;-60
2023/06/23 02:24:34;;;;;;;9.38;5.13;;;;;;;;;;7391076;19;20015;-60
2023/06/23 02:27:00;;;;;;;7.30;4.80;;;;;;;;;;7367641;19;20019;-61
2023/06/23 02:29:26;;;;;;;8.95;4.85;;;;;;;;;;7367944;19;20014;-61
2023/06/23 02:31:51;;;;;;;7.75;4.70;;;;;;;;;;7369055;19;20039;-61
2023/06/23 02:34:16;;;;;;;6.88;4.70;;;;;;;;;;7368838;19;20034;-61
2023/06/23 02:36:52;;;;;;;7.80;5.15;;;;;;;;;;7390882;19;20066;-62
2023/06/23 02:39:19;;;;;;;8.98;4.97;;;;;;;;;;7368164;19;20379;-61
2023/06/23 02:41:49;;;;;;;8.55;5.65;;;;;;;;;;7367655;19;20007;-62
2023/06/23 02:44:16;;;;;;;8.68;5.22;;;;;;;;;;7369897;19;20503;-60
2023/06/23 02:46:44;;;;;;;8.48;5.22;;;;;;;;;;7368322;19;20021;-61
2023/06/23 02:49:16;;;;;;;7.57;4.90;;;;;;;;;;7366848;19;20055;-62
2023/06/23 02:51:43;;;;;;;7.45;5.10;;;;;;;;;;7388640;19;20356;-60
2023/06/23 02:54:13;;;;;;;8.77;5.40;;;;;;;;;;7367544;19;20006;-61
2023/06/23 02:56:41;;;;;;;7.82;5.28;;;;;;;;;;7367325;19;20023;-61
2023/06/23 02:59:11;;;;;;;7.15;5.05;;;;;;;;;;7367400;19;20130;-61
2023/06/23 03:01:40;;;;;;;9.25;5.47;;;;;;;;;;7364005;19;20014;-62
2023/06/23 03:04:05;;;;;;;10.75;5.55;;;;;;;;;;7367672;19;20018;-60
2023/06/23 03:06:36;;;;;;;8.82;4.97;;;;;;;;;;7390667;19;20002;-57
2023/06/23 03:09:06;;;;;;;8.73;4.65;;;;;;;;;;7366980;19;20799;-61
2023/06/23 03:11:32;;;;;;;9.27;4.97;;;;;;;;;;7367950;19;20018;-61
2023/06/23 03:13:58;;;;;;;12.88;5.30;;;;;;;;;;7368381;19;20037;-61
2023/06/23 03:16:31;;;;;;;9.23;5.10;;;;;;;;;;7367330;19;20115;-61
2023/06/23 03:19:10;;;;;;;8.05;4.82;;;;;;;;;;7366441;19;20010;-62
2023/06/23 03:21:38;;;;;;;7.43;4.70;;;;;;;;;;7387840;19;20049;-62
2023/06/23 03:24:07;;;;;;;7.75;4.55;;;;;;;;;;7366812;19;20361;-62
2023/06/23 03:26:36;;;;;;;7.53;4.57;;;;;;;;;;7365621;19;20010;-62
2023/06/23 03:29:06;;;;;;;7.38;4.90;;;;;;;;;;7364399;19;20445;-61
2023/06/23 03:31:34;;;;;;;9.80;5.82;;;;;;;;;;7367749;19;20049;-61
2023/06/23 03:34:00;;;;;;;8.25;5.65;;;;;;;;;;7366500;19;20686;-60
2023/06/23 03:36:27;;;;;;;10.25;5.43;;;;;;;;;;7385570;19;20078;-62
2023/06/23 03:39:01;;;;;;;9.73;5.88;;;;;;;;;;7362569;19;20750;-61
2023/06/23 03:41:31;;;;;;;7.80;5.43;;;;;;;;;;7365069;19;20082;-61
2023/06/23 03:43:59;;;;;;;10.38;6.10;;;;;;;;;;7364126;19;20010;-62
2023/06/23 03:46:31;;;;;;;10.00;6.47;;;;;;;;;;7362389;19;20007;-62
2023/06/23 03:49:01;;;;;;;10.25;6.20;;;;;;;;;;7360144;19;20419;-62
2023/06/23 03:51:28;;;;;;;10.03;6.63;;;;;;;;;;7384338;19;20495;-61
2023/06/23 03:53:57;;;;;;;10.13;6.65;;;;;;;;;;7364195;19;20409;-61
2023/06/23 03:56:26;;;;;;;8.80;6.07;;;;;;;;;;7364299;19;20082;-61
2023/06/23 03:58:52;;;;;;;10.52;6.75;;;;;;;;;;7365314;19;20689;-61
2023/06/23 04:01:20;;;;;;;10.23;6.60;;;;;;;;;;7361662;19;20066;-61
2023/06/23 04:03:47;;;;;;;11.23;6.82;;;;;;;;;;7386627;19;20002;-62
2023/06/23 04:06:14;;;;;;;11.10;6.22;;;;;;;;;;7365350;19;20082;-60
2023/06/23 04:08:41;;;;;;;10.05;6.30;;;;;;;;;;7363742;19;20386;-63
2023/06/23 04:11:09;;;;;;;11.65;6.63;;;;;;;;;;7366233;19;19994;-61
2023/06/23 04:13:37;;;;;;;9.75;6.05;;;;;;;;;;7366011;19;20021;-60
2023/06/23 04:16:04;;;;;;;9.07;5.68;;;;;;;;;;7374772;19;20488;-61
2023/06/23 04:18:32;;;;;;;8.63;5.00;;;;;;;;;;7392640;19;20061;-60
2023/06/23 04:20:58;;;;;;;8.55;5.00;;;;;;;;;;7372368;19;20006;-60
2023/06/23 04:23:25;;;;;;;7.97;4.97;;;;;;;;;;7371055;19;20558;-60
2023/06/23 04:25:51;;;;;;;6.68;3.65;;;;;;;;;;7373755;19;20010;-61
2023/06/23 04:28:18;;;;;;;7.35;4.72;;;;;;;;;;7371692;19;20424;-60
2023/06/23 04:30:45;;;;;;;6.75;4.18;;;;;;;;;;7396520;19;20317;-60
2023/06/23 04:33:10;;;;;;;8.43;4.80;;;;;;;;;;7374162;19;20022;-59
2023/06/23 04:35:37;;;;;;;7.70;4.35;;;;;;;;;;7373650;19;20026;-60
2023/06/23 04:38:12;;;;;;;7.65;4.40;;;;;;;;;;7373642;19;20456;-72
2023/06/23 04:40:45;;;;;;;6.68;4.57;;;;;;;;;;7372794;19;20006;-71
2023/06/23 04:43:18;;;;;;;7.38;4.40;;;;;;;;;;7368781;19;20029;-71
2023/06/23 04:45:50;;;;;;;7.50;4.30;;;;;;;;;;7392696;19;20007;-71
2023/06/23 04:48:21;;;;;;;7.20;4.30;;;;;;;;;;7367214;19;20015;-71
2023/06/23 04:50:49;;;;;;;5.93;3.95;;;;;;;;;;7367627;19;20392;-71
2023/06/23 04:53:29;;;;;;;6.53;3.95;;;;;;;;;;7367816;19;20756;-71
2023/06/23 04:55:58;;;;;;;9.10;3.97;;;;;;;;;;7370132;19;20017;-71
2023/06/23 04:58:28;;;;;;;6.28;3.50;;;;;;;;;;7367480;19;20023;-70
2023/06/23 05:00:54;;;;;;;6.90;4.07;;;;;;;;;;7368216;19;20125;-70
2023/06/23 05:03:22;;;;;;;6.03;3.60;;;;;;;;;;7392358;19;20012;-70
2023/06/23 05:05:52;;;;;;;9.20;4.18;;;;;;;;;;7371836;19;20007;-70
2023/06/23 05:08:18;;;;;;;7.70;4.20;;;;;;;;;;7368883;19;20022;-70
2023/06/23 05:10:46;;;;;;;6.57;4.35;;;;;;;;;;7370792;19;20417;-70
2023/06/23 05:13:14;;;;;;;7.50;4.20;;;;;;;;;;7373062;19;20500;-70
2023/06/23 05:15:39;;;;;;;7.90;4.07;;;;;;;;;;7396230;19;20057;-62
2023/06/23 05:18:06;;;;;;;7.55;4.38;;;;;;;;;;7371987;19;20014;-62
2023/06/23 05:20:33;;;;;;;8.13;4.40;;;;;;;;;;7369949;19;20010;-62
2023/06/23 05:23:02;;;;;;;7.18;4.60;;;;;;;;;;7372125;19;20018;-63
2023/06/23 05:25:30;;;;;;;6.85;4.20;;;;;;;;;;7373831;19;20011;-63
2023/06/23 05:28:00;;;;;;;8.13;4.40;;;;;;;;;;7371743;19;20098;-63
2023/06/23 05:30:27;;;;;;;6.63;4.68;;;;;;;;;;7396042;19;20108;-63
2023/06/23 05:32:56;;;;;;;8.98;4.47;;;;;;;;;;7373435;19;20512;-62
2023/06/23 05:35:23;;;;;;;9.23;5.15;;;;;;;;;;7371843;19;20010;-62
2023/06/23 05:37:49;;;;;;;8.45;5.00;;;;;;;;;;7367998;19;20013;-60
2023/06/23 05:40:15;;;;;;;8.18;4.50;;;;;;;;;;7365308;19;20013;-62
2023/06/23 05:42:42;;;;;;;8.90;5.05;;;;;;;;;;7390947;19;20010;-63
2023/06/23 05:45:09;;;;;;;8.15;5.03;;;;;;;;;;7370430;19;20077;-61
2023/06/23 05:47:51;;;;;;;8.48;4.90;;;;;;;;;;7369222;19;20026;-63
2023/06/23 05:50:31;;;;;;;7.63;4.85;;;;;;;;;;7369312;19;20002;-62
2023/06/23 05:53:02;;;;;;;8.75;4.75;;;;;;;;;;7369765;19;20461;-63
2023/06/23 05:55:29;;;;;;;8.77;5.18;;;;;;;;;;7369851;19;20027;-63
2023/06/23 05:57:59;;;;;;;7.93;4.75;;;;;;;;;;7368651;19;20036;-64
2023/06/23 06:00:30;;;;;;;7.07;4.35;;;;;;;;;;7390076;19;20006;-60
2023/06/23 06:02:58;;;;;;;8.10;4.88;;;;;;;;;;7367316;19;20064;-62
2023/06/23 06:05:24;;;;;;;9.95;5.28;;;;;;;;;;7370807;19;20115;-60
2023/06/23 06:07:50;;;;;;;8.75;4.72;;;;;;;;;;7369384;19;20042;-62
2023/06/23 06:10:18;;;;;;;12.10;4.85;;;;;;;;;;7369759;19;20062;-62
2023/06/23 06:12:45;;;;;;;8.30;5.20;;;;;;;;;;7392905;19;20007;-64
2023/06/23 06:15:12;;;;;;;7.07;4.65;;;;;;;;;;7371371;19;20345;-63
2023/06/23 06:17:40;;;;;;;7.25;4.50;;;;;;;;;;7370155;19;20011;-62
2023/06/23 06:20:07;;;;;;;8.02;4.93;;;;;;;;;;7371138;19;20066;-62
2023/06/23 06:22:35;;;;;;;8.23;5.00;;;;;;;;;;7371080;19;20006;-63
2023/06/23 06:25:03;;;;;;;8.35;4.32;;;;;;;;;;7370774;19;20006;-63
2023/06/23 06:27:31;;;;;;;9.65;4.72;;;;;;;;;;7390917;19;20015;-62
2023/06/23 06:29:58;;;;;;;7.63;5.05;;;;;;;;;;7370545;19;20544;-62
2023/06/23 06:32:25;;;;;;;7.13;4.82;;;;;;;;;;7371741;19;20006;-61
2023/06/23 06:34:51;;;;;;;7.20;5.00;;;;;;;;;;7370731;19;20011;-62
2023/06/23 06:37:18;;;;;;;8.25;4.80;;;;;;;;;;7367522;19;20037;-61
2023/06/23 06:39:44;;;;;;;8.90;5.40;;;;;;;;;;7393671;19;20010;-62
2023/06/23 06:42:10;;;;;;;9.05;5.20;;;;;;;;;;7373408;19;20041;-61
2023/06/23 06:44:35;;;;;;;7.35;4.80;;;;;;;;;;7387991;19;20006;-62
2023/06/23 06:47:04;;;;;;;9.07;4.55;;;;;;;;;;7376749;19;20487;-62
2023/06/23 06:49:30;;;;;;;8.02;4.18;;;;;;;;;;7373953;19;20033;-62
2023/06/23 06:51:59;;;;;;;10.02;4.60;;;;;;;;;;7373153;19;20003;-62
2023/06/23 06:54:25;;;;;;;7.18;4.30;;;;;;;;;;7391343;19;20073;-67
2023/06/23 06:56:51;;;;;;;7.68;4.20;;;;;;;;;;7368778;19;20035;-62
2023/06/23 06:59:16;;;;;;;7.35;4.80;;;;;;;;;;7368293;19;20118;-63
2023/06/23 07:01:42;;;;;;;9.13;4.60;;;;;;;;;;7368596;19;20014;-62
2023/06/23 07:04:09;;;;;;;8.70;4.80;;;;;;;;;;7367755;19;20027;-63
2023/06/23 07:06:36;;;;;;;7.97;4.80;;;;;;;;;;7390721;19;19998;-61
2023/06/23 07:09:03;;;;;;;10.90;4.43;;;;;;;;;;7365766;19;20351;-62
2023/06/23 07:11:30;;;;;;;6.13;4.45;;;;;;;;;;7368463;19;20017;-62
2023/06/23 07:13:55;;;;;;;10.90;5.35;;;;;;;;;;7369317;19;20006;-62
2023/06/23 07:16:21;;;;;;;6.70;4.78;;;;;;;;;;7370130;19;20014;-62
2023/06/23 07:18:46;;;;;;;8.32;5.07;;;;;;;;;;7390133;19;19999;-62
2023/06/23 07:21:11;;;;;;;8.73;4.82;;;;;;;;;;7368711;19;20043;-61
2023/06/23 07:23:37;;;;;;;7.80;5.07;;;;;;;;;;7367178;19;20019;-62
2023/06/23 07:26:02;;;;;;;7.57;4.75;;;;;;;;;;7368658;19;20127;-62
2023/06/23 07:28:28;;;;;;;7.65;5.43;;;;;;;;;;7367198;19;20007;-63
2023/06/23 07:30:53;;;;;;;8.45;4.70;;;;;;;;;;7368547;19;20107;-63
2023/06/23 07:33:18;;;;;;;8.00;4.40;;;;;;;;;;7389790;19;20062;-61
2023/06/23 07:35:44;;;;;;;7.95;4.65;;;;;;;;;;7367329;19;20006;-62
2023/06/23 07:38:09;;;;;;;8.02;4.70;;;;;;;;;;7367786;19;20718;-60
2023/06/23 07:40:34;;;;;;;7.07;4.72;;;;;;;;;;7368933;19;20526;-62
2023/06/23 07:43:00;;;;;;;8.38;4.93;;;;;;;;;;7368722;19;19991;-63
2023/06/23 07:45:25;;;;;;;7.65;4.95;;;;;;;;;;7389033;19;20347;-63
2023/06/23 07:47:50;;;;;;;8.15;5.30;;;;;;;;;;7368999;19;20003;-63
2023/06/23 07:50:16;;;;;;;12.65;5.38;;;;;;;;;;7374729;19;20027;-61
2023/06/23 07:52:41;;;;;;;8.80;5.18;;;;;;;;;;7375271;19;20415;-63
2023/06/23 07:55:07;;;;;;;11.45;4.95;;;;;;;;;;7373328;19;19998;-61
2023/06/23 07:57:32;;;;;;;6.82;4.60;;;;;;;;;;7393192;19;20049;-63
2023/06/23 07:59:57;;;;;;;6.82;5.03;;;;;;;;;;7371150;19;20014;-62
2023/06/23 08:02:23;;;;;;;10.10;4.00;;;;;;;;;;7373986;19;20022;-62
2023/06/23 08:04:48;;;;;;;7.07;4.35;;;;;;;;;;7373448;19;20009;-63
2023/06/23 08:07:14;;;;;;;7.05;4.18;;;;;;;;;;7374378;19;20403;-62
2023/06/23 08:09:39;;;;;;;10.27;4.65;;;;;;;;;;7396357;19;20039;-63
2023/06/23 08:12:05;;;;;;;10.65;4.65;;;;;;;;;;7373318;19;20061;-63
2023/06/23 08:14:30;;;;;;;10.82;4.88;;;;;;;;;;7372311;19;20006;-62
2023/06/23 08:16:56;;;;;;;7.70;5.25;;;;;;;;;;7372371;19;20090;-63
2023/06/23 08:19:24;;;;;;;7.82;5.05;;;;;;;;;;7372079;19;20560;-61
2023/06/23 08:21:51;;;;;;;8.10;4.80;;;;;;;;;;7381958;19;20018;-62
2023/06/23 08:24:16;;;;;;;7.95;4.85;;;;;;;;;;7394724;19;20006;-61
2023/06/23 08:26:41;;;;;;;7.93;5.00;;;;;;;;;;7369308;19;20038;-62
2023/06/23 08:29:07;;;;;;;7.60;5.00;;;;;;;;;;7372412;19;20081;-62
2023/06/23 08:31:32;;;;;;;8.82;4.93;;;;;;;;;;7374988;19;20086;-63
2023/06/23 08:33:57;;;;;;;9.38;4.95;;;;;;;;;;7373967;19;20279;-63
2023/06/23 08:36:23;;;;;;;7.53;4.65;;;;;;;;;;7395715;19;20002;-63
2023/06/23 08:38:48;;;;;;;8.30;4.65;;;;;;;;;;7373012;19;20094;-61
2023/06/23 08:41:15;;;;;;;10.25;5.20;;;;;;;;;;7376309;19;20010;-62
2023/06/23 08:43:44;;;;;;;9.10;5.10;;;;;;;;;;7376937;19;20014;-63
2023/06/23 08:46:13;;;;;;;7.38;4.78;;;;;;;;;;7378434;19;20043;-60
2023/06/23 08:48:42;;;;;;;9.85;4.93;;;;;;;;;;7396741;19;20078;-63
2023/06/23 08:51:08;;;;;;;10.82;4.97;;;;;;;;;;7375225;19;20002;-60
2023/06/23 08:53:33;;;;;;;10.63;4.82;;;;;;;;;;7376197;19;20010;-62
2023/06/23 08:55:59;;;;;;;7.82;4.60;;;;;;;;;;7372706;19;20042;-62
2023/06/23 08:58:24;;;;;;;9.85;5.13;;;;;;;;;;7372774;19;20082;-63
2023/06/23 09:00:52;;;;;;;9.23;4.80;;;;;;;;;;7381253;19;20074;-62
2023/06/23 09:03:19;;;;;;;8.57;5.10;;;;;;;;;;7394782;19;20002;-63
2023/06/23 09:05:44;;;;;;;9.25;4.78;;;;;;;;;;7371450;19;20024;-63
2023/06/23 09:08:10;;;;;;;7.15;4.55;;;;;;;;;;7370877;19;20014;-64
2023/06/23 09:10:36;;;;;;;8.10;4.82;;;;;;;;;;7372027;19;20675;-69
2023/06/23 09:13:04;;;;;;;6.70;4.07;;;;;;;;;;7373384;19;20006;-68
2023/06/23 09:15:30;;;;;;;8.15;4.15;;;;;;;;;;7394168;19;20078;-70
2023/06/23 09:17:56;;;;;;;8.43;4.60;;;;;;;;;;7369671;19;20376;-73
2023/06/23 09:20:23;;;;;;;6.85;4.60;;;;;;;;;;7372678;19;20039;-73
2023/06/23 09:22:49;;;;;;;7.03;4.50;;;;;;;;;;7372520;19;20031;-72
2023/06/23 09:25:39;;;;;;;8.07;5.07;;;;;;;;;;7372552;19;20651;-72
2023/06/23 09:28:05;;;;;;;7.20;4.95;;;;;;;;;;7369993;19;20014;-72
2023/06/23 09:30:35;;;;;;;7.95;4.65;;;;;;;;;;7393591;19;20018;-72
2023/06/23 09:33:04;;;;;;;8.73;4.60;;;;;;;;;;7381930;19;20026;-72
2023/06/23 09:35:30;;;;;;;7.72;4.60;;;;;;;;;;7388149;19;20479;-72
2023/06/23 09:37:55;;;;;;;10.93;4.57;;;;;;;;;;7389524;19;20002;-72
2023/06/23 09:40:27;;;;;;;6.70;4.75;;;;;;;;;;7378485;19;20029;-72
2023/06/23 09:42:57;;;;;;;8.55;4.82;;;;;;;;;;7372549;19;20003;-72
2023/06/23 09:45:23;;;;;;;8.65;4.70;;;;;;;;;;7392349;19;20007;-72
2023/06/23 09:47:49;;;;;;;8.40;4.68;;;;;;;;;;7372840;19;20014;-71
2023/06/23 09:50:15;;;;;;;10.13;4.78;;;;;;;;;;7372500;19;20428;-71
2023/06/23 09:52:41;;;;;;;7.82;4.88;;;;;;;;;;7371073;19;20488;-71
2023/06/23 09:55:07;;;;;;;7.70;4.68;;;;;;;;;;7371772;19;20049;-71
2023/06/23 09:57:32;;;;;;;7.28;4.50;;;;;;;;;;7392242;19;20007;-72
2023/06/23 09:59:58;;;;;;;7.22;4.50;;;;;;;;;;7371474;19;20520;-72
2023/06/23 10:02:28;;;;;;;6.93;4.28;;;;;;;;;;7373324;19;20010;-73
2023/06/23 10:05:00;;;;;;;;;;;;;;;;;;7374097;19;20014;-72
2023/06/23 10:07:27;;;;;;;13.05;4.47;;;;;;;;;;7373147;19;20372;-73
2023/06/23 10:09:55;;;;;;;8.63;4.07;;;;;;;;;;7372188;19;20002;-72
2023/06/23 10:12:22;;;;;;;6.97;4.18;;;;;;;;;;7389929;19;20781;-72
2023/06/23 10:14:49;;;;;;;9.20;4.40;;;;;;;;;;7372238;19;20007;-72
2023/06/23 10:17:15;;;;;;;8.90;4.78;;;;;;;;;;7371035;19;20010;-73
2023/06/23 10:19:41;;;;;;;8.25;5.00;;;;;;;;;;7371699;19;20014;-73
2023/06/23 10:22:08;;;;;;;6.78;4.55;;;;;;;;;;7370398;19;20003;-73
2023/06/23 10:24:34;;;;;;;6.65;4.00;;;;;;;;;;7392225;19;20018;-71
2023/06/23 10:27:01;;;;;;;8.38;4.10;;;;;;;;;;7370233;19;20010;-73
2023/06/23 10:29:27;;;;;;;11.48;4.63;;;;;;;;;;7368407;19;20007;-72
2023/06/23 10:31:56;;;;;;;6.57;4.68;;;;;;;;;;7370128;19;20002;-73
2023/06/23 10:34:24;;;;;;;7.20;3.88;;;;;;;;;;7369985;19;20006;-73
2023/06/23 10:36:56;;;;;;;6.60;4.40;;;;;;;;;;7387345;19;20002;-75
2023/06/23 10:39:26;;;;;;;6.55;4.45;;;;;;;;;;7390759;19;19998;-73
2023/06/23 10:41:52;;;;;;;9.20;4.37;;;;;;;;;;7369522;19;20354;-73
2023/06/23 10:44:18;;;;;;;7.10;4.38;;;;;;;;;;7370461;19;20077;-73
2023/06/23 10:46:44;;;;;;;8.05;4.10;;;;;;;;;;7369606;19;20007;-72
2023/06/23 10:49:11;;;;;;;7.75;4.05;;;;;;;;;;7367341;19;20004;-73
2023/06/23 10:51:37;;;;;;;10.02;4.22;;;;;;;;;;7390912;19;19994;-73
2023/06/23 10:54:07;;;;;;;6.57;3.67;;;;;;;;;;7369011;19;20010;-73
2023/06/23 10:56:33;;;;;;;;;;;;;;;;;;7369203;19;20026;-73
2023/06/23 10:58:59;;;;;;;6.15;4.00;;;;;;;;;;7367520;19;19918;-72
2023/06/23 11:01:26;;;;;;;6.47;3.78;;;;;;;;;;7368972;19;20006;-73
2023/06/23 11:03:56;;;;;;;8.05;3.85;;;;;;;;;;7369581;19;20007;-74
2023/06/23 11:06:27;;;;;;;5.53;3.88;;;;;;;;;;7391068;19;20480;-73
2023/06/23 11:08:52;;;;;;;7.80;3.80;;;;;;;;;;7366547;19;20078;-61
2023/06/23 11:11:32;;;;;;;6.20;3.50;;;;;;;;;;7367959;19;20007;-63
2023/06/23 11:13:58;;;;;;;7.13;3.88;;;;;;;;;;7366967;19;20475;-62
2023/06/23 11:16:34;;;;;;;8.25;3.88;;;;;;;;;;7364459;19;20007;-62
2023/06/23 11:19:02;;;;;;;5.05;2.97;;;;;;;;;;7366046;19;20018;-62
2023/06/23 11:21:27;;;;;;;5.97;3.63;;;;;;;;;;7388004;19;20118;-63
2023/06/23 11:24:19;;;;;;;6.20;3.97;;;;;;;;;;7364895;19;20051;-63
2023/06/23 11:26:53;;;;;;;6.63;3.63;;;;;;;;;;7366221;19;20539;-63
2023/06/23 11:29:21;;;;;;;5.72;3.60;;;;;;;;;;7367305;19;20006;-63
2023/06/23 11:32:23;;;;;;;9.02;3.65;;;;;;;;;;7368970;19;20365;-62
2023/06/23 11:35:00;;;;;;;6.53;4.00;;;;;;;;;;7367581;19;20003;-62
2023/06/23 11:37:31;;;;;;;5.63;3.47;;;;;;;;;;7367053;19;20010;-62
2023/06/23 11:39:57;;;;;;;5.78;3.95;;;;;;;;;;7367433;19;20465;-62
2023/06/23 11:42:23;;;;;;;7.88;3.95;;;;;;;;;;7388396;19;20025;-63
2023/06/23 11:44:49;;;;;;;5.00;3.30;;;;;;;;;;7366544;19;20468;-62
2023/06/23 11:47:15;;;;;;;6.50;3.58;;;;;;;;;;7368316;19;20046;-62
2023/06/23 11:49:41;;;;;;;13.30;3.72;;;;;;;;;;7369054;19;20649;-62
2023/06/23 11:52:07;;;;;;;8.88;3.78;;;;;;;;;;7367844;19;20002;-61
2023/06/23 11:54:35;;;;;;;5.75;3.35;;;;;;;;;;7390890;19;20337;-63
2023/06/23 11:57:02;;;;;;;6.70;3.55;;;;;;;;;;7372369;19;20011;-61
2023/06/23 11:59:38;;;;;;;5.82;3.65;;;;;;;;;;7371357;19;20007;-62
2023/06/23 12:02:05;;;;;;;7.35;3.33;;;;;;;;;;7369714;19;20006;-61
2023/06/23 12:04:34;;;;;;;6.13;3.80;;;;;;;;;;7368533;19;20077;-61
2023/06/23 12:07:02;;;;;;;5.77;3.43;;;;;;;;;;7368757;19;20007;-62
2023/06/23 12:09:30;;;;;;;7.50;3.88;;;;;;;;;;7387598;19;20037;-60
2023/06/23 12:11:56;;;;;;;6.85;3.55;;;;;;;;;;7367996;19;20013;-59
2023/06/23 12:14:33;;;;;;;8.23;3.85;;;;;;;;;;7368301;19;20013;-61
2023/06/23 12:17:12;;;;;;;4.88;3.35;;;;;;;;;;7366559;19;20014;-62
2023/06/23 12:19:38;;;;;;;6.75;3.45;;;;;;;;;;7367015;19;20482;-63
2023/06/23 12:22:16;;;;;;;7.75;3.40;;;;;;;;;;7367537;19;20418;-62
2023/06/23 12:24:42;;;;;;;8.98;3.53;;;;;;;;;;7389986;19;20029;-63
2023/06/23 12:27:09;;;;;;;6.05;3.30;;;;;;;;;;7366700;19;20795;-62
2023/06/23 12:29:34;;;;;;;5.85;3.30;;;;;;;;;;7365123;19;20006;-63
2023/06/23 12:32:02;;;;;;;6.35;3.15;;;;;;;;;;7369267;19;20010;-61
2023/06/23 12:34:35;;;;;;;7.85;3.38;;;;;;;;;;7367056;19;20464;-63
2023/06/23 12:37:02;;;;;;;9.35;3.72;;;;;;;;;;7372749;19;20002;-62
2023/06/23 12:39:32;;;;;;;15.30;3.20;;;;;;;;;;7394797;19;20587;-63
2023/06/23 12:41:58;;;;;;;7.18;3.30;;;;;;;;;;7373003;19;20611;-63
2023/06/23 12:44:32;;;;;;;7.85;3.42;;;;;;;;;;7373131;19;20014;-63
2023/06/23 12:47:01;;;;;;;8.68;3.40;;;;;;;;;;7372164;19;20365;-62
2023/06/23 12:49:31;;;;;;;6.70;3.58;;;;;;;;;;7371662;19;20007;-63
2023/06/23 12:51:57;;;;;;;6.57;3.03;;;;;;;;;;7373429;19;20103;-63
2023/06/23 12:54:22;;;;;;;5.25;2.92;;;;;;;;;;7394079;19;19999;-62
2023/06/23 12:56:48;;;;;;;5.78;2.90;;;;;;;;;;7370818;19;20467;-62
2023/06/23 12:59:13;;;;;;;6.13;3.08;;;;;;;;;;7370908;19;20007;-62
2023/06/23 13:01:38;;;;;;;6.15;2.78;;;;;;;;;;7372072;19;20496;-62
2023/06/23 13:04:04;;;;;;;8.98;2.97;;;;;;;;;;7371737;19;20096;-62
2023/06/23 13:06:29;;;;;;;7.57;2.95;;;;;;;;;;7393645;19;20003;-62
2023/06/23 13:08:55;;;;;;;6.28;2.70;;;;;;;;;;7369271;19;20023;-62
2023/06/23 13:11:21;;;;;;;6.95;2.97;;;;;;;;;;7372025;19;20548;-62
2023/06/23 13:13:47;;;;;;;8.13;2.97;;;;;;;;;;7373104;19;20044;-62
2023/06/23 13:16:15;;;;;;;3.88;2.47;;;;;;;;;;7372979;19;20497;-62
2023/06/23 13:18:41;;;;;;;4.53;2.70;;;;;;;;;;7392868;19;20003;-65
2023/06/23 13:21:06;;;;;;;4.68;2.90;;;;;;;;;;7372314;19;20496;-66
2023/06/23 13:23:31;;;;;;;5.32;2.92;;;;;;;;;;7371022;19;20571;-66
2023/06/23 13:25:57;;;;;;;5.40;2.22;;;;;;;;;;7372350;19;20013;-65
2023/06/23 13:28:22;;;;;;;4.10;2.47;;;;;;;;;;7369276;19;20025;-65
2023/06/23 13:31:06;;;;;;;3.92;2.70;;;;;;;;;;7391485;19;20419;-66
2023/06/23 13:33:31;;;;;;;6.25;2.35;;;;;;;;;;7368521;19;20007;-65
2023/06/23 13:35:57;;;;;;;6.93;2.35;;;;;;;;;;7391150;19;20354;-65
2023/06/23 13:38:22;;;;;;;9.00;3.03;;;;;;;;;;7367889;19;20021;-65
2023/06/23 13:40:47;;;;;;;8.30;2.70;;;;;;;;;;7369999;19;20472;-65
2023/06/23 13:43:12;;;;;;;5.40;2.70;;;;;;;;;;7369679;19;20637;-65
2023/06/23 13:45:38;;;;;;;9.27;3.20;;;;;;;;;;7392237;19;20236;-65
2023/06/23 13:48:03;;;;;;;5.00;2.80;;;;;;;;;;7369633;19;20066;-66
2023/06/23 13:50:30;;;;;;;4.80;2.65;;;;;;;;;;7371582;19;20125;-65
2023/06/23 13:52:55;;;;;;;6.28;2.80;;;;;;;;;;7370477;19;20014;-65
2023/06/23 13:55:20;;;;;;;4.43;2.63;;;;;;;;;;7371040;19;20275;-65
2023/06/23 13:57:46;;;;;;;5.93;2.80;;;;;;;;;;7392191;19;20019;-65
2023/06/23 14:00:12;;;;;;;4.97;2.70;;;;;;;;;;7370523;19;20017;-66
2023/06/23 14:02:37;;;;;;;4.28;2.60;;;;;;;;;;7370206;19;20006;-66
2023/06/23 14:05:04;;;;;;;5.57;2.60;;;;;;;;;;7371618;19;20087;-66
2023/06/23 14:07:30;;;;;;;4.20;2.40;;;;;;;;;;7371618;19;20006;-66
2023/06/23 14:09:56;;;;;;;6.90;2.78;;;;;;;;;;7370755;19;20082;-66
2023/06/23 14:12:21;;;;;;;4.50;2.70;;;;;;;;;;7393465;19;20462;-65
2023/06/23 14:14:48;;;;;;;5.10;2.63;;;;;;;;;;7372961;19;20009;-65
2023/06/23 14:17:14;;;;;;;4.57;2.88;;;;;;;;;;7374811;19;20402;-66
2023/06/23 14:19:39;;;;;;;5.13;2.58;;;;;;;;;;7373965;19;20132;-65
2023/06/23 14:22:05;;;;;;;4.93;2.60;;;;;;;;;;7373772;19;20002;-65
2023/06/23 14:24:32;;;;;;;5.35;2.75;;;;;;;;;;7392729;19;20077;-64
2023/06/23 14:26:57;;;;;;;4.65;2.53;;;;;;;;;;7370750;19;20038;-65
2023/06/23 14:29:24;;;;;;;4.68;2.75;;;;;;;;;;7370285;19;20571;-65
2023/06/23 14:31:49;;;;;;;6.15;3.08;;;;;;;;;;7371213;19;20002;-65
2023/06/23 14:34:17;;;;;;;5.22;2.80;;;;;;;;;;7374858;19;20027;-74
2023/06/23 14:36:43;;;;;;;4.53;2.70;;;;;;;;;;7398874;19;20013;-74
2023/06/23 14:39:08;;;;;;;4.10;2.70;;;;;;;;;;7376559;19;20014;-73
2023/06/23 14:41:34;;;;;;;5.13;2.83;;;;;;;;;;7372889;19;20090;-73
2023/06/23 14:44:00;;;;;;;4.72;2.75;;;;;;;;;;7369990;19;20353;-74
2023/06/23 14:46:25;;;;;;;7.75;2.80;;;;;;;;;;7372495;19;20006;-73